createdAt,value
2019-01-29T00:02:02.684Z,7.60
2019-01-29T00:04:51.488Z,16.13
2019-01-29T00:07:40.278Z,9.23
2019-01-29T00:10:29.076Z,8.80
2019-01-29T00:13:17.857Z,10.30
2019-01-29T00:16:06.734Z,12.37
2019-01-29T00:19:03.250Z,6.93
2019-01-29T00:21:52.051Z,7.20
2019-01-29T00:24:40.839Z,10.50
2019-01-29T00:27:29.644Z,7.90
2019-01-29T00:30:37.619Z,6.47
2019-01-29T00:33:26.421Z,7.97
2019-01-29T00:36:15.206Z,5.03
2019-01-29T00:42:19.241Z,11.30
2019-01-29T00:45:28.947Z,8.83
2019-01-29T00:48:17.731Z,8.97
2019-01-29T00:51:06.605Z,11.67
2019-01-29T00:53:55.458Z,7.87
2019-01-29T00:56:44.287Z,18.83
2019-01-29T00:59:33.053Z,20.57
2019-01-29T01:02:21.863Z,13.10
2019-01-29T01:05:03.292Z,11.87
2019-01-29T01:07:52.098Z,11.93
2019-01-29T01:10:40.882Z,7.17
2019-01-29T01:13:29.692Z,11.73
2019-01-29T01:16:18.475Z,7.27
2019-01-29T01:19:07.359Z,10.33
2019-01-29T01:21:56.153Z,7.87
2019-01-29T01:24:44.964Z,11.75
2019-01-29T01:31:02.151Z,5.37
2019-01-29T01:33:51.207Z,12.40
2019-01-29T01:36:40.014Z,13.80
2019-01-29T01:39:28.802Z,14.27
2019-01-29T01:42:17.604Z,19.70
2019-01-29T01:45:27.303Z,13.67
2019-01-29T01:48:35.128Z,11.47
2019-01-29T01:51:23.907Z,7.63
2019-01-29T01:54:12.705Z,7.53
2019-01-29T01:57:01.487Z,6.33
2019-01-29T01:59:50.295Z,15.40
2019-01-29T02:02:39.079Z,4.90
2019-01-29T02:05:20.887Z,10.83
2019-01-29T02:08:09.755Z,18.02
2019-01-29T02:10:58.588Z,6.77
2019-01-29T02:13:47.445Z,8.83
2019-01-29T02:19:43.981Z,9.80
2019-01-29T02:22:32.766Z,7.40
2019-01-29T02:25:21.571Z,8.30
2019-01-29T02:28:10.377Z,9.97
2019-01-29T02:30:59.187Z,5.67
2019-01-29T02:33:47.975Z,6.17
2019-01-29T02:36:36.785Z,8.73
2019-01-29T02:39:25.565Z,7.07
2019-01-29T02:42:14.377Z,6.50
2019-01-29T02:45:03.187Z,8.60
2019-01-29T02:47:51.977Z,12.03
2019-01-29T02:50:40.783Z,10.90
2019-01-29T02:53:29.577Z,11.33
2019-01-29T02:56:37.411Z,8.57
2019-01-29T02:59:26.202Z,8.70
2019-01-29T03:02:15.004Z,5.80
2019-01-29T03:04:57.048Z,6.07
2019-01-29T03:07:45.926Z,9.00
2019-01-29T03:10:34.732Z,8.40
2019-01-29T03:13:23.525Z,6.50
2019-01-29T03:16:12.330Z,7.73
2019-01-29T03:22:08.983Z,6.20
2019-01-29T03:24:57.892Z,15.50
2019-01-29T03:27:46.694Z,10.63
2019-01-29T03:30:35.482Z,9.63
2019-01-29T03:33:24.308Z,6.50
2019-01-29T03:36:13.135Z,11.10
2019-01-29T03:39:01.925Z,7.27
2019-01-29T03:41:50.731Z,7.47
2019-01-29T03:44:39.513Z,9.30
2019-01-29T03:47:28.339Z,16.30
2019-01-29T03:50:38.031Z,8.97
2019-01-29T03:53:26.851Z,8.57
2019-01-29T03:56:15.641Z,9.65
2019-01-29T03:59:04.590Z,7.80
2019-01-29T04:01:53.407Z,6.40
2019-01-29T04:04:34.556Z,10.38
2019-01-29T04:07:23.426Z,8.10
2019-01-29T04:10:33.121Z,10.20
2019-01-29T04:13:21.933Z,5.50
2019-01-29T04:16:10.723Z,13.30
2019-01-29T04:18:59.542Z,9.65
2019-01-29T04:21:48.403Z,6.83
2019-01-29T04:27:31.120Z,9.73
2019-01-29T04:30:40.818Z,10.50
2019-01-29T04:33:29.621Z,6.47
2019-01-29T04:36:18.418Z,9.98
2019-01-29T04:39:07.970Z,6.27
2019-01-29T04:41:56.826Z,6.03
2019-01-29T04:44:45.661Z,9.28
2019-01-29T04:47:34.445Z,8.50
2019-01-29T04:50:23.320Z,6.70
2019-01-29T04:53:12.116Z,10.30
2019-01-29T04:56:00.911Z,13.53
2019-01-29T04:58:49.705Z,16.47
2019-01-29T05:01:38.513Z,11.93
2019-01-29T05:04:27.303Z,20.20
2019-01-29T05:07:09.372Z,11.07
2019-01-29T05:09:58.161Z,16.00
2019-01-29T05:12:46.972Z,11.93
2019-01-29T05:15:35.752Z,13.83
2019-01-29T05:18:24.567Z,14.00
2019-01-29T05:21:13.364Z,13.75
2019-01-29T05:24:06.847Z,9.77
2019-01-29T05:26:52.674Z,10.55
2019-01-29T05:29:41.467Z,9.23
2019-01-29T05:32:30.268Z,9.98
2019-01-29T05:35:19.060Z,8.87
2019-01-29T05:38:07.855Z,8.83
2019-01-29T05:40:56.641Z,9.63
2019-01-29T05:43:45.449Z,10.40
2019-01-29T05:49:29.359Z,12.90
2019-01-29T05:52:18.150Z,20.27
2019-01-29T05:55:27.864Z,14.10
2019-01-29T05:58:16.654Z,20.72
2019-01-29T06:01:05.465Z,21.57
2019-01-29T06:03:46.989Z,20.43
2019-01-29T06:06:35.880Z,11.77
2019-01-29T06:09:24.708Z,13.45
2019-01-29T06:12:13.540Z,15.90
2019-01-29T06:15:02.336Z,13.67
2019-01-29T06:17:51.135Z,11.43
2019-01-29T06:20:39.926Z,12.70
2019-01-29T06:23:29.061Z,15.45
2019-01-29T06:26:17.847Z,20.40
2019-01-29T06:29:06.653Z,19.20
2019-01-29T06:31:55.449Z,10.07
2019-01-29T06:34:44.264Z,9.63
2019-01-29T06:37:33.054Z,16.10
2019-01-29T06:40:42.825Z,15.57
2019-01-29T06:43:31.628Z,18.53
2019-01-29T06:46:20.414Z,21.65
2019-01-29T06:49:09.299Z,16.12
2019-01-29T06:51:58.093Z,12.60
2019-01-29T06:54:46.969Z,19.32
2019-01-29T06:57:35.754Z,19.30
2019-01-29T07:00:24.454Z,20.70
2019-01-29T07:03:13.242Z,13.37
2019-01-29T07:06:02.041Z,14.83
2019-01-29T07:08:50.839Z,18.95
2019-01-29T07:11:39.651Z,20.10
2019-01-29T07:14:28.445Z,29.00
2019-01-29T07:20:13.495Z,25.00
2019-01-29T07:23:02.286Z,26.43
2019-01-29T07:25:51.160Z,18.50
2019-01-29T07:28:39.952Z,20.33
2019-01-29T07:31:28.753Z,13.80
2019-01-29T07:34:17.540Z,20.17
2019-01-29T07:37:06.345Z,16.00
2019-01-29T07:39:55.152Z,19.77
2019-01-29T07:42:43.960Z,13.60
2019-01-29T07:45:32.777Z,16.70
2019-01-29T07:48:21.583Z,16.37
2019-01-29T07:51:10.442Z,23.10
2019-01-29T07:53:59.251Z,25.10
2019-01-29T07:56:48.050Z,17.50
2019-01-29T07:59:36.843Z,14.10
2019-01-29T08:02:18.566Z,21.23
2019-01-29T08:05:28.284Z,13.20
2019-01-29T08:08:17.091Z,14.23
2019-01-29T08:11:05.879Z,23.67
2019-01-29T08:13:54.684Z,15.03
2019-01-29T08:16:43.463Z,22.57
2019-01-29T08:19:32.266Z,17.52
2019-01-29T08:22:21.063Z,21.03
2019-01-29T08:25:30.009Z,12.67
2019-01-29T08:28:18.815Z,21.20
2019-01-29T08:31:07.600Z,11.70
2019-01-29T08:33:56.407Z,14.80
2019-01-29T08:36:45.192Z,13.60
2019-01-29T08:39:34.006Z,16.90
2019-01-29T08:42:41.813Z,16.33
2019-01-29T08:45:30.751Z,18.47
2019-01-29T08:48:19.539Z,20.53
2019-01-29T08:51:08.344Z,15.93
2019-01-29T08:53:57.141Z,17.50
2019-01-29T08:56:45.948Z,15.93
2019-01-29T08:59:34.834Z,16.33
2019-01-29T09:02:16.151Z,19.37
2019-01-29T09:05:26.196Z,17.57
2019-01-29T09:08:15.005Z,20.70
2019-01-29T09:11:03.792Z,14.93
2019-01-29T09:13:52.600Z,17.13
2019-01-29T09:16:41.491Z,14.50
2019-01-29T09:19:30.291Z,13.80
2019-01-29T09:22:19.105Z,18.07
2019-01-29T09:25:28.795Z,14.50
2019-01-29T09:28:36.628Z,15.60
2019-01-29T09:31:25.414Z,17.23
2019-01-29T09:34:14.219Z,15.23
2019-01-29T09:37:03.013Z,16.27
2019-01-29T09:39:51.815Z,22.17
2019-01-29T09:42:40.619Z,20.17
2019-01-29T09:45:29.492Z,15.97
2019-01-29T09:51:46.689Z,16.67
2019-01-29T09:54:35.474Z,16.87
2019-01-29T09:57:24.349Z,23.80
2019-01-29T10:00:34.083Z,18.13
2019-01-29T10:03:14.257Z,16.47
2019-01-29T10:06:03.098Z,14.47
2019-01-29T10:08:51.960Z,14.60
2019-01-29T10:11:40.831Z,14.07
2019-01-29T10:14:29.679Z,32.30
2019-01-29T10:20:28.242Z,12.40
2019-01-29T10:23:17.076Z,19.70
2019-01-29T10:26:05.952Z,14.10
2019-01-29T10:28:54.781Z,14.97
2019-01-29T10:31:43.687Z,17.53
2019-01-29T10:34:32.599Z,29.40
2019-01-29T10:37:21.491Z,22.67
2019-01-29T10:40:31.262Z,21.95
2019-01-29T10:43:20.130Z,18.60
2019-01-29T10:49:16.678Z,14.45
2019-01-29T10:52:05.735Z,15.48
2019-01-29T10:54:54.548Z,15.33
2019-01-29T10:57:43.583Z,12.20
2019-01-29T11:00:53.290Z,16.65
2019-01-29T11:03:34.702Z,15.17
2019-01-29T11:06:23.485Z,11.60
2019-01-29T11:09:12.659Z,13.60
2019-01-29T11:12:01.470Z,20.77
2019-01-29T11:14:50.259Z,11.80
2019-01-29T11:17:39.066Z,15.63
2019-01-29T11:20:27.858Z,12.60
2019-01-29T11:23:16.656Z,22.93
2019-01-29T11:26:05.886Z,17.90
2019-01-29T11:28:54.758Z,14.03
2019-01-29T11:31:43.566Z,16.80
2019-01-29T11:34:32.351Z,33.73
2019-01-29T11:37:21.169Z,20.25
2019-01-29T11:40:30.255Z,14.80
2019-01-29T11:43:19.058Z,19.83
2019-01-29T11:46:08.018Z,25.53
2019-01-29T11:48:56.835Z,21.97
2019-01-29T11:51:45.627Z,17.00
2019-01-29T11:54:27.366Z,35.47
2019-01-29T11:57:16.159Z,18.80
2019-01-29T12:00:44.910Z,23.50
2019-01-29T12:03:33.694Z,14.30
2019-01-29T12:06:22.517Z,15.33
2019-01-29T12:09:11.382Z,24.60
2019-01-29T12:12:00.205Z,22.80
2019-01-29T12:14:49.128Z,23.37
2019-01-29T12:17:37.907Z,18.87
2019-01-29T12:20:26.778Z,17.87
2019-01-29T12:23:15.656Z,17.05
2019-01-29T12:26:12.689Z,15.20
2019-01-29T12:28:55.127Z,13.80
2019-01-29T12:31:44.098Z,12.37
2019-01-29T12:34:32.900Z,31.17
2019-01-29T12:37:21.697Z,15.80
2019-01-29T12:40:31.404Z,11.10
2019-01-29T12:43:20.219Z,19.17
2019-01-29T12:46:09.072Z,16.77
2019-01-29T12:48:57.874Z,14.33
2019-01-29T12:54:48.676Z,15.73
2019-01-29T12:57:37.476Z,14.23
2019-01-29T13:03:25.524Z,18.00
2019-01-29T13:06:14.357Z,13.57
2019-01-29T13:11:59.032Z,10.77
2019-01-29T13:14:47.893Z,13.30
2019-01-29T13:17:36.683Z,17.50
2019-01-29T13:20:25.529Z,17.00
2019-01-29T13:23:14.343Z,14.30
2019-01-29T13:26:03.124Z,13.60
2019-01-29T13:28:51.938Z,16.20
2019-01-29T13:31:40.732Z,12.10
2019-01-29T13:34:29.558Z,21.90
2019-01-29T13:37:18.363Z,16.50
2019-01-29T13:43:35.887Z,17.02
2019-01-29T13:46:15.563Z,15.37
2019-01-29T13:49:04.371Z,14.40
2019-01-29T13:51:53.169Z,13.70
2019-01-29T13:54:41.975Z,13.90
2019-01-29T13:57:30.802Z,18.70
2019-01-29T14:00:40.507Z,13.00
2019-01-29T14:03:29.313Z,11.18
2019-01-29T14:06:18.117Z,14.20
2019-01-29T14:12:02.991Z,20.80
2019-01-29T14:14:51.775Z,17.20
2019-01-29T14:17:40.587Z,15.83
2019-01-29T14:20:29.376Z,16.77
2019-01-29T14:23:18.182Z,12.00
2019-01-29T14:26:07.046Z,11.50
2019-01-29T14:28:55.841Z,10.77
2019-01-29T14:31:44.650Z,9.90
2019-01-29T14:34:33.459Z,22.02
2019-01-29T14:37:42.461Z,10.90
2019-01-29T14:43:47.790Z,9.67
2019-01-29T14:46:29.149Z,10.30
2019-01-29T14:49:17.945Z,11.73
2019-01-29T14:52:06.824Z,11.60
2019-01-29T14:54:55.607Z,10.37
2019-01-29T14:57:44.418Z,11.10
2019-01-29T15:00:54.167Z,8.00
2019-01-29T15:03:42.924Z,6.60
2019-01-29T15:06:32.920Z,14.97
2019-01-29T15:09:22.239Z,10.40
2019-01-29T15:12:11.111Z,9.57
2019-01-29T15:18:26.744Z,8.10
2019-01-29T15:24:23.295Z,8.90
2019-01-29T15:27:12.076Z,11.93
2019-01-29T15:30:00.926Z,18.83
2019-01-29T15:32:49.704Z,11.80
2019-01-29T15:35:38.583Z,7.03
2019-01-29T15:38:27.364Z,11.70
2019-01-29T15:41:16.173Z,13.47
2019-01-29T15:44:05.027Z,10.97
2019-01-29T15:46:51.023Z,12.20
2019-01-29T15:49:39.825Z,14.90
2019-01-29T15:52:28.924Z,10.63
2019-01-29T15:55:18.078Z,22.00
2019-01-29T16:01:22.394Z,16.37
2019-01-29T16:04:11.178Z,16.50
2019-01-29T16:06:59.994Z,10.80
2019-01-29T16:09:48.784Z,14.30
2019-01-29T16:12:37.588Z,9.83
2019-01-29T16:18:42.510Z,11.90
2019-01-29T16:21:31.359Z,14.07
2019-01-29T16:24:20.143Z,13.25
2019-01-29T16:27:08.948Z,17.23
2019-01-29T16:29:58.050Z,16.42
2019-01-29T16:32:46.843Z,12.17
2019-01-29T16:38:51.819Z,13.45
2019-01-29T16:41:33.869Z,12.27
2019-01-29T16:44:22.684Z,22.83
2019-01-29T16:47:11.469Z,21.50
2019-01-29T16:50:00.276Z,19.87
2019-01-29T16:52:49.086Z,18.50
2019-01-29T16:55:38.062Z,15.45
2019-01-29T16:58:26.904Z,15.60
2019-01-29T17:04:30.500Z,27.97
2019-01-29T17:07:19.284Z,12.40
2019-01-29T17:10:28.313Z,15.77
2019-01-29T17:13:17.126Z,16.37
2019-01-29T17:16:05.945Z,18.97
2019-01-29T17:18:54.740Z,22.82
2019-01-29T17:21:43.543Z,22.67
2019-01-29T17:24:32.331Z,38.17
2019-01-29T17:27:21.147Z,18.73
2019-01-29T17:30:02.373Z,15.57
2019-01-29T17:32:51.186Z,21.60
2019-01-29T17:36:00.899Z,13.87
2019-01-29T17:38:49.706Z,24.23
2019-01-29T17:41:31.702Z,19.70
2019-01-29T17:44:20.491Z,20.30
2019-01-29T17:47:09.304Z,22.53
2019-01-29T17:49:58.104Z,17.20
2019-01-29T17:52:46.915Z,23.80
2019-01-29T17:59:04.705Z,18.93
2019-01-29T18:05:22.055Z,35.07
2019-01-29T18:08:10.868Z,36.65
2019-01-29T18:10:59.669Z,24.77
2019-01-29T18:13:48.459Z,16.40
2019-01-29T18:16:37.296Z,22.80
2019-01-29T18:19:26.106Z,23.20
2019-01-29T18:22:14.934Z,26.83
2019-01-29T18:28:32.194Z,26.23
2019-01-29T18:31:20.982Z,22.17
2019-01-29T18:34:09.850Z,28.93
2019-01-29T18:36:58.644Z,29.43
2019-01-29T18:39:47.830Z,25.73
2019-01-29T18:42:30.495Z,25.33
2019-01-29T18:45:20.063Z,29.07
2019-01-29T18:48:08.921Z,32.40
2019-01-29T18:50:57.822Z,36.30
2019-01-29T18:53:46.810Z,33.60
2019-01-29T18:56:36.126Z,28.27
2019-01-29T18:59:25.422Z,29.98
2019-01-29T19:02:14.669Z,27.90
2019-01-29T19:14:43.247Z,33.37
2019-01-29T19:27:38.619Z,25.63
2019-01-29T19:30:49.168Z,25.20
2019-01-29T19:33:31.600Z,24.63
2019-01-29T19:42:55.523Z,25.37
2019-01-29T19:52:29.152Z,26.07
2019-01-29T19:58:47.700Z,24.67
2019-01-29T20:05:12.081Z,30.50
2019-01-29T20:17:34.381Z,28.40
2019-01-29T20:26:50.879Z,22.30
2019-01-29T20:32:52.909Z,22.00
2019-01-29T20:35:53.777Z,31.17
2019-01-29T20:49:03.669Z,31.07
2019-01-29T21:07:38.021Z,24.17
2019-01-29T21:11:01.242Z,24.40
2019-01-29T21:13:57.958Z,25.90
2019-01-29T21:23:38.783Z,22.03
2019-01-29T21:29:26.484Z,21.60
2019-01-29T21:32:08.758Z,22.83
2019-01-29T21:34:57.755Z,37.53
2019-01-29T21:38:05.781Z,30.77
2019-01-29T21:40:54.676Z,22.97
2019-01-29T21:43:43.566Z,24.13
2019-01-29T21:46:32.409Z,27.70
2019-01-29T21:49:21.214Z,25.97
2019-01-29T21:52:10.054Z,27.10
2019-01-29T21:54:58.858Z,25.07
2019-01-29T21:57:47.761Z,17.98
2019-01-29T22:00:57.471Z,16.00
2019-01-29T22:03:46.300Z,23.80
2019-01-29T22:06:35.095Z,20.00
2019-01-29T22:09:23.967Z,20.80
2019-01-29T22:12:12.788Z,22.57
2019-01-29T22:15:01.608Z,29.70
2019-01-29T22:17:50.409Z,20.80
2019-01-29T22:20:39.294Z,23.47
2019-01-29T22:23:28.110Z,28.60
2019-01-29T22:26:16.917Z,20.60
2019-01-29T22:29:05.733Z,23.57
2019-01-29T22:31:47.293Z,25.10
2019-01-29T22:34:36.110Z,18.67
2019-01-29T22:37:24.911Z,24.02
2019-01-29T22:40:34.630Z,22.77
2019-01-29T22:43:23.429Z,20.23
2019-01-29T22:46:12.243Z,21.80
2019-01-29T22:49:01.040Z,25.47
2019-01-29T22:51:49.853Z,26.80
2019-01-29T22:54:38.643Z,25.27
2019-01-29T22:57:27.471Z,20.25
2019-01-29T23:00:56.830Z,28.07
2019-01-29T23:03:45.646Z,21.33
2019-01-29T23:06:55.354Z,18.20
2019-01-29T23:10:03.263Z,24.10
2019-01-29T23:12:52.137Z,24.32
2019-01-29T23:18:35.761Z,26.63
2019-01-29T23:21:24.586Z,24.45
2019-01-29T23:27:21.146Z,23.10
2019-01-29T23:30:29.339Z,25.32
2019-01-29T23:33:10.992Z,26.63
2019-01-29T23:35:59.798Z,24.12
2019-01-29T23:38:48.681Z,22.33
2019-01-29T23:41:37.539Z,26.95
2019-01-29T23:44:26.484Z,32.42
2019-01-29T23:47:15.300Z,23.98
2019-01-29T23:53:32.803Z,22.73
2019-01-29T23:56:21.680Z,22.45
2019-01-29T23:59:10.493Z,23.83
